Time;durP1;ratioP1;P1;durP2;ratioP2;P2;SDS_P1;SDS_P2;PMS_P1;PMS_P2;Temp;Humidity;BMP_temperature;BMP_pressure;BME280_temperature;BME280_humidity;BME280_pressure;Samples;Min_cycle;Max_cycle;Signal;HPM_P1;HPM_P2
2023/10/23 00:02:25;;;;;;;7.17;6.20;;;;;;;;;;5012203;28;20201;-51
2023/10/23 00:04:51;;;;;;;6.97;6.33;;;;;;;;;;5011860;28;20247;-52
2023/10/23 00:07:17;;;;;;;8.00;7.10;;;;;;;;;;5011948;28;20659;-52
2023/10/23 00:09:44;;;;;;;8.40;6.57;;;;;;;;;;5011926;28;20296;-52
2023/10/23 00:12:10;;;;;;;6.90;6.30;;;;;;;;;;5011717;28;20579;-52
2023/10/23 00:14:36;;;;;;;6.97;6.37;;;;;;;;;;5011939;28;20197;-52
2023/10/23 00:17:03;;;;;;;6.40;5.80;;;;;;;;;;5012029;28;20190;-52
2023/10/23 00:19:29;;;;;;;8.50;6.63;;;;;;;;;;5011801;28;20201;-52
2023/10/23 00:21:58;;;;;;;7.27;6.57;;;;;;;;;;5011840;28;20201;-52
2023/10/23 00:24:24;;;;;;;8.10;7.20;;;;;;;;;;5011653;28;20411;-52
2023/10/23 00:26:51;;;;;;;9.60;8.60;;;;;;;;;;5011838;28;20252;-52
2023/10/23 00:29:17;;;;;;;8.10;7.30;;;;;;;;;;5011794;28;20210;-52
2023/10/23 00:31:43;;;;;;;9.63;8.73;;;;;;;;;;5011769;28;20222;-52
2023/10/23 00:34:09;;;;;;;10.03;9.07;;;;;;;;;;5011563;28;20217;-52
2023/10/23 00:36:35;;;;;;;11.50;10.03;;;;;;;;;;5011629;28;20225;-52
2023/10/23 00:39:01;;;;;;;11.90;10.63;;;;;;;;;;5011881;28;20232;-52
2023/10/23 00:41:27;;;;;;;12.33;11.13;;;;;;;;;;5011526;28;20675;-52
2023/10/23 00:43:55;;;;;;;12.63;11.10;;;;;;;;;;5011409;28;20328;-52
2023/10/23 00:46:21;;;;;;;14.30;12.17;;;;;;;;;;5011434;28;20220;-52
2023/10/23 00:48:47;;;;;;;13.00;11.70;;;;;;;;;;5011569;28;20576;-52
2023/10/23 00:51:16;;;;;;;11.93;10.73;;;;;;;;;;5011594;28;20197;-52
2023/10/23 00:53:42;;;;;;;12.63;11.23;;;;;;;;;;5011564;28;20208;-51
2023/10/23 00:56:09;;;;;;;11.90;10.70;;;;;;;;;;5011413;28;20221;-51
2023/10/23 00:58:37;;;;;;;11.33;10.23;;;;;;;;;;5011396;28;20204;-52
2023/10/23 01:01:05;;;;;;;11.33;10.00;;;;;;;;;;5011689;28;20664;-52
2023/10/23 01:03:31;;;;;;;11.53;10.33;;;;;;;;;;5011628;28;20197;-53
2023/10/23 01:05:58;;;;;;;10.83;9.83;;;;;;;;;;5011391;28;20217;-52
2023/10/23 01:08:24;;;;;;;11.63;9.93;;;;;;;;;;5011186;28;20259;-52
2023/10/23 01:10:50;;;;;;;10.07;9.07;;;;;;;;;;5011187;28;20233;-52
2023/10/23 01:13:16;;;;;;;10.53;9.43;;;;;;;;;;5011280;28;20201;-53
2023/10/23 01:15:42;;;;;;;10.47;9.47;;;;;;;;;;5012785;28;20292;-53
2023/10/23 01:18:10;;;;;;;9.97;9.00;;;;;;;;;;5014966;28;20218;-53
2023/10/23 01:20:36;;;;;;;10.03;9.03;;;;;;;;;;5013845;28;20209;-52
2023/10/23 01:23:02;;;;;;;11.33;10.23;;;;;;;;;;5014979;28;20229;-52
2023/10/23 01:25:30;;;;;;;10.97;9.87;;;;;;;;;;5014692;28;20252;-52
2023/10/23 01:27:56;;;;;;;11.80;10.60;;;;;;;;;;5014764;28;20300;-52
2023/10/23 01:30:22;;;;;;;14.77;12.37;;;;;;;;;;5014690;28;20246;-53
2023/10/23 01:32:48;;;;;;;13.40;11.17;;;;;;;;;;5014785;28;20221;-52
2023/10/23 01:35:14;;;;;;;15.00;12.50;;;;;;;;;;5015039;28;20198;-53
2023/10/23 01:37:41;;;;;;;13.00;11.40;;;;;;;;;;5014511;28;20221;-53
2023/10/23 01:40:08;;;;;;;13.07;11.77;;;;;;;;;;5014576;28;20196;-52
2023/10/23 01:42:35;;;;;;;12.53;11.20;;;;;;;;;;5014344;28;20265;-52
2023/10/23 01:45:02;;;;;;;13.17;11.17;;;;;;;;;;5014874;28;20300;-52
2023/10/23 01:47:28;;;;;;;13.73;12.43;;;;;;;;;;5014423;28;20212;-52
2023/10/23 01:49:54;;;;;;;17.57;14.20;;;;;;;;;;5014559;28;20276;-52
2023/10/23 01:52:20;;;;;;;18.07;15.57;;;;;;;;;;5014131;28;20197;-53
2023/10/23 01:54:46;;;;;;;17.60;15.17;;;;;;;;;;5014870;28;20194;-53
2023/10/23 01:57:12;;;;;;;16.40;14.23;;;;;;;;;;5014415;28;20225;-52
2023/10/23 01:59:40;;;;;;;14.93;13.33;;;;;;;;;;5014223;28;20186;-52
2023/10/23 02:02:06;;;;;;;15.63;13.87;;;;;;;;;;5014281;28;20633;-53
2023/10/23 02:04:33;;;;;;;14.73;13.23;;;;;;;;;;5014225;28;20833;-52
2023/10/23 02:06:59;;;;;;;15.00;13.40;;;;;;;;;;5014234;28;20287;-52
2023/10/23 02:09:26;;;;;;;14.90;13.30;;;;;;;;;;5014228;28;20214;-52
2023/10/23 02:11:52;;;;;;;15.00;12.27;;;;;;;;;;5013973;28;20226;-52
2023/10/23 02:14:18;;;;;;;14.90;13.40;;;;;;;;;;5013915;28;20204;-52
2023/10/23 02:16:45;;;;;;;16.60;14.80;;;;;;;;;;5014179;28;20272;-52
2023/10/23 02:19:11;;;;;;;16.10;14.40;;;;;;;;;;5013795;28;20638;-53
2023/10/23 02:21:37;;;;;;;18.07;15.17;;;;;;;;;;5013611;28;20325;-52
2023/10/23 02:24:04;;;;;;;17.23;15.23;;;;;;;;;;5013890;28;20197;-52
2023/10/23 02:26:30;;;;;;;15.73;14.13;;;;;;;;;;5013638;28;20597;-53
2023/10/23 02:28:57;;;;;;;17.07;13.47;;;;;;;;;;5013664;28;20263;-52
2023/10/23 02:31:23;;;;;;;14.87;13.27;;;;;;;;;;5013468;28;20465;-53
2023/10/23 02:33:50;;;;;;;16.50;14.50;;;;;;;;;;5013710;28;20201;-52
2023/10/23 02:36:16;;;;;;;18.67;16.63;;;;;;;;;;5012232;28;20564;-53
2023/10/23 02:38:42;;;;;;;20.63;16.77;;;;;;;;;;5013619;28;20201;-52
2023/10/23 02:41:08;;;;;;;21.70;17.47;;;;;;;;;;5013471;28;20297;-52
2023/10/23 02:43:34;;;;;;;24.13;18.93;;;;;;;;;;5013248;28;20229;-53
2023/10/23 02:46:01;;;;;;;22.27;17.37;;;;;;;;;;4999899;28;20696;-51
2023/10/23 02:48:27;;;;;;;23.30;17.50;;;;;;;;;;4999859;28;20200;-52
2023/10/23 02:50:54;;;;;;;24.87;18.50;;;;;;;;;;4999912;28;20607;-52
2023/10/23 02:53:21;;;;;;;21.33;17.33;;;;;;;;;;4999649;28;20632;-51
2023/10/23 02:55:47;;;;;;;23.60;17.23;;;;;;;;;;4999970;28;20197;-51
2023/10/23 02:58:13;;;;;;;23.87;17.43;;;;;;;;;;4999648;28;20558;-51
2023/10/23 03:00:39;;;;;;;18.70;15.90;;;;;;;;;;4999784;28;20266;-51
2023/10/23 03:03:05;;;;;;;25.37;17.73;;;;;;;;;;4999588;28;20193;-51
2023/10/23 03:05:31;;;;;;;21.30;17.00;;;;;;;;;;4999536;28;20726;-52
2023/10/23 03:07:58;;;;;;;25.97;18.33;;;;;;;;;;4999431;28;20213;-51
2023/10/23 03:10:24;;;;;;;24.23;17.67;;;;;;;;;;5001090;28;20200;-51
2023/10/23 03:12:50;;;;;;;24.10;18.37;;;;;;;;;;4999375;28;20193;-51
2023/10/23 03:15:16;;;;;;;19.83;16.67;;;;;;;;;;4999593;28;20198;-52
2023/10/23 03:17:42;;;;;;;25.23;18.93;;;;;;;;;;4999388;28;20588;-51
2023/10/23 03:20:09;;;;;;;30.77;20.40;;;;;;;;;;4999222;28;20232;-51
2023/10/23 03:22:35;;;;;;;28.37;20.03;;;;;;;;;;4999229;28;20194;-52
2023/10/23 03:25:03;;;;;;;26.67;19.90;;;;;;;;;;4999406;28;20247;-51
2023/10/23 03:27:29;;;;;;;27.03;20.83;;;;;;;;;;4999498;28;20229;-52
2023/10/23 03:29:55;;;;;;;24.07;18.20;;;;;;;;;;5000969;28;20629;-51
2023/10/23 03:32:21;;;;;;;26.60;21.07;;;;;;;;;;4999049;28;20319;-51
2023/10/23 03:34:47;;;;;;;26.93;21.00;;;;;;;;;;4999064;28;20208;-52
2023/10/23 03:37:14;;;;;;;30.70;21.90;;;;;;;;;;4998932;28;20273;-51
2023/10/23 03:39:40;;;;;;;27.30;22.13;;;;;;;;;;4998335;28;20771;-52
2023/10/23 03:42:08;;;;;;;32.73;24.17;;;;;;;;;;4998714;28;20273;-51
2023/10/23 03:44:34;;;;;;;30.97;24.03;;;;;;;;;;4998928;28;20215;-51
2023/10/23 03:47:00;;;;;;;29.73;23.73;;;;;;;;;;4999020;28;20233;-51
2023/10/23 03:49:26;;;;;;;26.33;22.77;;;;;;;;;;4998828;28;20256;-51
2023/10/23 03:51:52;;;;;;;31.53;24.57;;;;;;;;;;4998898;28;20225;-51
2023/10/23 03:54:18;;;;;;;27.97;21.90;;;;;;;;;;4998950;28;20615;-52
2023/10/23 03:56:44;;;;;;;33.93;25.73;;;;;;;;;;4998763;28;20189;-52
2023/10/23 03:59:12;;;;;;;30.97;23.83;;;;;;;;;;4998725;28;20197;-51
2023/10/23 04:01:38;;;;;;;35.27;26.10;;;;;;;;;;4998470;28;20256;-51
2023/10/23 04:04:04;;;;;;;30.00;23.50;;;;;;;;;;4998709;28;20267;-51
2023/10/23 04:06:30;;;;;;;28.70;23.00;;;;;;;;;;4998411;28;20225;-51
2023/10/23 04:08:56;;;;;;;29.80;23.63;;;;;;;;;;4998388;28;20208;-51
2023/10/23 04:11:23;;;;;;;31.93;23.43;;;;;;;;;;4998578;28;20197;-51
2023/10/23 04:13:49;;;;;;;28.27;22.60;;;;;;;;;;4998401;28;20204;-51
2023/10/23 04:16:17;;;;;;;30.70;24.17;;;;;;;;;;4998669;28;20204;-51
2023/10/23 04:18:43;;;;;;;33.63;24.97;;;;;;;;;;4997385;28;20212;-52
2023/10/23 04:21:09;;;;;;;31.83;24.87;;;;;;;;;;4998389;28;20207;-52
2023/10/23 04:23:36;;;;;;;30.53;23.70;;;;;;;;;;5003284;28;20205;-52
2023/10/23 04:26:03;;;;;;;31.40;24.63;;;;;;;;;;5011956;28;20691;-51
2023/10/23 04:28:29;;;;;;;28.70;23.77;;;;;;;;;;5011724;28;20678;-51
2023/10/23 04:30:58;;;;;;;30.63;23.63;;;;;;;;;;5011676;28;20263;-52
2023/10/23 04:33:25;;;;;;;27.03;22.53;;;;;;;;;;5011593;28;20640;-52
2023/10/23 04:35:52;;;;;;;32.57;24.33;;;;;;;;;;5011586;28;20629;-52
2023/10/23 04:38:18;;;;;;;28.47;23.47;;;;;;;;;;5011613;28;20229;-51
2023/10/23 04:40:44;;;;;;;36.00;25.90;;;;;;;;;;5011688;28;20198;-52
2023/10/23 04:43:11;;;;;;;30.17;23.03;;;;;;;;;;5011443;28;20257;-51
2023/10/23 04:45:37;;;;;;;27.83;23.33;;;;;;;;;;5011352;28;20229;-51
2023/10/23 04:48:04;;;;;;;29.27;24.40;;;;;;;;;;5011590;28;20190;-51
2023/10/23 04:50:32;;;;;;;27.97;23.03;;;;;;;;;;5013182;28;20193;-51
2023/10/23 04:52:59;;;;;;;24.80;22.10;;;;;;;;;;5015531;28;20193;-51
2023/10/23 04:55:25;;;;;;;25.93;21.73;;;;;;;;;;5015525;28;20208;-52
2023/10/23 04:57:51;;;;;;;26.13;22.40;;;;;;;;;;5015292;28;20198;-51
2023/10/23 05:00:19;;;;;;;27.27;22.70;;;;;;;;;;5015491;28;20210;-52
2023/10/23 05:02:46;;;;;;;26.57;23.63;;;;;;;;;;5015758;28;20600;-53
2023/10/23 05:05:12;;;;;;;28.50;22.77;;;;;;;;;;5015261;28;20232;-52
2023/10/23 05:07:40;;;;;;;23.63;20.93;;;;;;;;;;5015347;28;20296;-52
2023/10/23 05:10:07;;;;;;;23.23;20.77;;;;;;;;;;5015131;28;20208;-52
2023/10/23 05:12:33;;;;;;;26.03;21.27;;;;;;;;;;5014977;28;20205;-52
2023/10/23 05:14:59;;;;;;;23.70;20.53;;;;;;;;;;5015273;28;20256;-52
2023/10/23 05:17:25;;;;;;;26.00;20.50;;;;;;;;;;5014997;28;20194;-52
2023/10/23 05:19:51;;;;;;;22.07;19.53;;;;;;;;;;5014842;28;20606;-52
2023/10/23 05:22:17;;;;;;;23.27;19.83;;;;;;;;;;5014996;28;20189;-52
2023/10/23 05:24:46;;;;;;;25.20;20.80;;;;;;;;;;5015355;28;20205;-52
2023/10/23 05:27:12;;;;;;;24.10;19.90;;;;;;;;;;5014744;28;20696;-52
2023/10/23 05:29:38;;;;;;;24.30;20.53;;;;;;;;;;5014617;28;20695;-52
2023/10/23 05:32:04;;;;;;;25.50;20.27;;;;;;;;;;5014715;28;20218;-52
2023/10/23 05:34:30;;;;;;;20.40;18.00;;;;;;;;;;5014879;28;20202;-52
2023/10/23 05:36:56;;;;;;;22.10;19.80;;;;;;;;;;5014602;28;20652;-52
2023/10/23 05:39:22;;;;;;;21.27;19.07;;;;;;;;;;5014671;28;20427;-52
2023/10/23 05:41:50;;;;;;;22.03;19.00;;;;;;;;;;5014735;28;20209;-52
2023/10/23 05:44:16;;;;;;;22.73;20.20;;;;;;;;;;5014724;28;20205;-52
2023/10/23 05:46:42;;;;;;;27.03;21.17;;;;;;;;;;5010865;28;20251;-52
2023/10/23 05:49:08;;;;;;;27.43;21.97;;;;;;;;;;5014473;28;20201;-52
2023/10/23 05:51:34;;;;;;;22.20;19.60;;;;;;;;;;5014376;28;20260;-52
2023/10/23 05:54:00;;;;;;;23.57;21.07;;;;;;;;;;5014465;28;20672;-52
2023/10/23 05:56:26;;;;;;;25.83;21.63;;;;;;;;;;5014431;28;20252;-52
2023/10/23 05:58:53;;;;;;;26.97;21.93;;;;;;;;;;5014186;28;20248;-52
2023/10/23 06:01:19;;;;;;;28.40;21.67;;;;;;;;;;5013959;28;20201;-52
2023/10/23 06:03:45;;;;;;;25.17;21.07;;;;;;;;;;5014340;28;20563;-52
2023/10/23 06:06:12;;;;;;;26.40;21.87;;;;;;;;;;5013967;28;20225;-52
2023/10/23 06:08:38;;;;;;;27.70;22.63;;;;;;;;;;5013888;28;20255;-52
2023/10/23 06:11:07;;;;;;;27.33;23.17;;;;;;;;;;5014243;28;20202;-52
2023/10/23 06:13:33;;;;;;;25.60;21.40;;;;;;;;;;5013409;28;20202;-52
2023/10/23 06:16:04;;;;;;;28.17;24.13;;;;;;;;;;5013485;28;20225;-52
2023/10/23 06:18:30;;;;;;;32.60;25.07;;;;;;;;;;5013960;28;20705;-52
2023/10/23 06:21:00;;;;;;;28.70;23.23;;;;;;;;;;5013376;28;20193;-52
2023/10/23 06:23:26;;;;;;;34.13;26.03;;;;;;;;;;5013815;28;20201;-52
2023/10/23 06:25:55;;;;;;;33.03;24.77;;;;;;;;;;5013622;28;20233;-51
2023/10/23 06:28:21;;;;;;;33.20;25.83;;;;;;;;;;5013605;28;20201;-52
2023/10/23 06:30:47;;;;;;;33.40;26.60;;;;;;;;;;5013727;28;20194;-52
2023/10/23 06:33:15;;;;;;;30.00;24.50;;;;;;;;;;5013502;28;20228;-52
2023/10/23 06:35:41;;;;;;;27.30;23.47;;;;;;;;;;5013643;28;20288;-52
2023/10/23 06:38:07;;;;;;;34.33;24.90;;;;;;;;;;5013578;28;20235;-52
2023/10/23 06:40:33;;;;;;;28.73;24.10;;;;;;;;;;5013677;28;20217;-52
2023/10/23 06:42:59;;;;;;;29.73;24.80;;;;;;;;;;5013161;28;20242;-52
2023/10/23 06:45:25;;;;;;;30.27;23.10;;;;;;;;;;5013252;28;20535;-52
2023/10/23 06:47:51;;;;;;;31.30;25.00;;;;;;;;;;5013182;28;20228;-52
2023/10/23 06:50:18;;;;;;;32.87;25.50;;;;;;;;;;5013413;28;20197;-52
2023/10/23 06:52:45;;;;;;;26.60;23.30;;;;;;;;;;5013178;28;20197;-52
2023/10/23 06:55:11;;;;;;;29.43;23.60;;;;;;;;;;5013263;28;20225;-52
2023/10/23 06:57:37;;;;;;;32.60;25.60;;;;;;;;;;5013020;28;20615;-52
2023/10/23 07:00:03;;;;;;;35.97;25.80;;;;;;;;;;5013133;28;20201;-52
2023/10/23 07:02:29;;;;;;;33.07;25.60;;;;;;;;;;5013182;28;20216;-52
2023/10/23 07:04:55;;;;;;;39.17;27.40;;;;;;;;;;5012934;28;20336;-52
2023/10/23 07:07:23;;;;;;;36.63;27.00;;;;;;;;;;5012959;28;20221;-53
2023/10/23 07:09:49;;;;;;;43.27;26.40;;;;;;;;;;5012937;28;20201;-52
2023/10/23 07:12:16;;;;;;;37.43;25.37;;;;;;;;;;5012959;28;20197;-52
2023/10/23 07:14:42;;;;;;;36.20;25.80;;;;;;;;;;5012316;28;20205;-53
2023/10/23 07:17:08;;;;;;;35.67;25.93;;;;;;;;;;5012897;28;20264;-53
2023/10/23 07:19:34;;;;;;;36.67;27.83;;;;;;;;;;5013063;28;20205;-53
2023/10/23 07:22:00;;;;;;;41.90;28.43;;;;;;;;;;5012572;28;20620;-52
2023/10/23 07:24:27;;;;;;;36.57;24.83;;;;;;;;;;5012656;28;20228;-52
2023/10/23 07:26:53;;;;;;;35.83;26.90;;;;;;;;;;5012414;28;20239;-53
2023/10/23 07:29:19;;;;;;;38.57;27.27;;;;;;;;;;5012619;28;20703;-53
2023/10/23 07:31:45;;;;;;;34.43;26.13;;;;;;;;;;5012511;28;20305;-53
2023/10/23 07:34:11;;;;;;;38.30;27.23;;;;;;;;;;5012383;28;20619;-52
2023/10/23 07:36:38;;;;;;;37.47;26.97;;;;;;;;;;5012349;28;20229;-52
2023/10/23 07:39:04;;;;;;;34.80;25.93;;;;;;;;;;5012483;28;20233;-53
2023/10/23 07:41:32;;;;;;;34.77;25.03;;;;;;;;;;5012614;28;20244;-52
2023/10/23 07:43:58;;;;;;;31.80;23.53;;;;;;;;;;5012372;28;20280;-52
2023/10/23 07:46:24;;;;;;;28.53;23.27;;;;;;;;;;5012159;28;20233;-52
2023/10/23 07:48:50;;;;;;;30.97;24.27;;;;;;;;;;5012247;28;20287;-53
2023/10/23 07:51:16;;;;;;;30.23;24.10;;;;;;;;;;5002240;28;20284;-53
2023/10/23 07:53:42;;;;;;;26.10;21.80;;;;;;;;;;4998754;28;20280;-52
2023/10/23 07:56:08;;;;;;;26.53;20.90;;;;;;;;;;4998587;28;20193;-53
2023/10/23 07:58:36;;;;;;;26.53;22.17;;;;;;;;;;5000577;28;20206;-53
2023/10/23 08:01:04;;;;;;;29.10;23.40;;;;;;;;;;4998581;28;20202;-52
2023/10/23 08:03:30;;;;;;;25.03;21.33;;;;;;;;;;4999230;28;20359;-53
2023/10/23 08:05:56;;;;;;;25.30;21.50;;;;;;;;;;4998393;28;20271;-53
2023/10/23 08:08:22;;;;;;;24.43;20.30;;;;;;;;;;4998494;28;20198;-52
2023/10/23 08:10:48;;;;;;;23.93;20.50;;;;;;;;;;4998554;28;20289;-52
2023/10/23 08:13:14;;;;;;;24.97;21.43;;;;;;;;;;4998576;28;20292;-53
2023/10/23 08:15:43;;;;;;;25.70;20.13;;;;;;;;;;4998391;28;21028;-52
2023/10/23 08:18:09;;;;;;;22.70;19.90;;;;;;;;;;4998302;28;20359;-52
2023/10/23 08:20:35;;;;;;;23.97;19.80;;;;;;;;;;4998342;28;20224;-52
2023/10/23 08:23:01;;;;;;;24.33;19.63;;;;;;;;;;4998288;28;20240;-52
2023/10/23 08:25:27;;;;;;;21.33;19.07;;;;;;;;;;4998182;28;20228;-52
2023/10/23 08:27:53;;;;;;;24.60;19.57;;;;;;;;;;4998244;28;20268;-52
2023/10/23 08:30:19;;;;;;;24.53;19.60;;;;;;;;;;4998362;28;20193;-53
2023/10/23 08:32:46;;;;;;;22.03;19.37;;;;;;;;;;4998245;28;20220;-52
2023/10/23 08:35:12;;;;;;;21.60;18.63;;;;;;;;;;4998254;28;20237;-52
2023/10/23 08:37:38;;;;;;;22.37;18.53;;;;;;;;;;4998184;28;20217;-52
2023/10/23 08:40:06;;;;;;;20.20;18.10;;;;;;;;;;4998076;28;20627;-53
2023/10/23 08:42:32;;;;;;;19.63;16.60;;;;;;;;;;4998148;28;20233;-52
2023/10/23 08:44:59;;;;;;;19.97;17.37;;;;;;;;;;4997949;28;20263;-52
2023/10/23 08:47:25;;;;;;;20.27;18.17;;;;;;;;;;4997835;28;20323;-52
2023/10/23 08:49:54;;;;;;;17.73;15.87;;;;;;;;;;4998121;28;20248;-52
2023/10/23 08:52:21;;;;;;;17.70;15.80;;;;;;;;;;4998068;28;20222;-53
2023/10/23 08:54:47;;;;;;;20.30;17.10;;;;;;;;;;4998039;28;20206;-53
2023/10/23 08:57:15;;;;;;;17.57;15.80;;;;;;;;;;4999833;28;20221;-52
2023/10/23 08:59:42;;;;;;;19.13;15.43;;;;;;;;;;4998022;28;20232;-52
2023/10/23 09:02:08;;;;;;;19.20;17.30;;;;;;;;;;4998137;28;20276;-51
2023/10/23 09:04:34;;;;;;;18.40;15.60;;;;;;;;;;4997995;28;20202;-52
2023/10/23 09:07:02;;;;;;;17.93;15.50;;;;;;;;;;4997856;28;20237;-51
2023/10/23 09:09:28;;;;;;;15.93;14.33;;;;;;;;;;4998059;28;20201;-52
2023/10/23 09:11:54;;;;;;;17.53;15.63;;;;;;;;;;4997837;28;20206;-52
2023/10/23 09:14:24;;;;;;;18.63;16.47;;;;;;;;;;4998003;28;20207;-51
2023/10/23 09:16:51;;;;;;;17.33;15.43;;;;;;;;;;4997553;28;20205;-51
2023/10/23 09:19:24;;;;;;;17.50;15.53;;;;;;;;;;4997878;28;20656;-52
2023/10/23 09:21:52;;;;;;;17.27;15.47;;;;;;;;;;4997549;28;20206;-52
2023/10/23 09:24:20;;;;;;;17.20;15.40;;;;;;;;;;4997927;28;20225;-52
2023/10/23 09:26:46;;;;;;;16.77;15.07;;;;;;;;;;4997838;28;20245;-52
2023/10/23 09:29:12;;;;;;;14.87;13.30;;;;;;;;;;4997627;28;20215;-52
2023/10/23 09:31:40;;;;;;;14.20;12.87;;;;;;;;;;4997637;28;20252;-52
2023/10/23 09:34:07;;;;;;;13.37;11.97;;;;;;;;;;4997778;28;20644;-52
2023/10/23 09:36:33;;;;;;;13.87;12.57;;;;;;;;;;4999524;28;20198;-52
2023/10/23 09:39:00;;;;;;;14.90;13.40;;;;;;;;;;5001450;28;20205;-52
2023/10/23 09:41:28;;;;;;;14.50;11.40;;;;;;;;;;5002867;28;20252;-52
2023/10/23 09:43:56;;;;;;;12.93;11.60;;;;;;;;;;5000858;28;20267;-52
2023/10/23 09:46:24;;;;;;;11.90;10.80;;;;;;;;;;5006201;28;20228;-53
2023/10/23 09:48:50;;;;;;;13.30;11.97;;;;;;;;;;5014488;28;20202;-52
2023/10/23 09:51:18;;;;;;;13.10;11.80;;;;;;;;;;5014643;28;20201;-52
2023/10/23 09:53:48;;;;;;;12.10;10.53;;;;;;;;;;5014664;28;20205;-52
2023/10/23 09:56:16;;;;;;;11.73;10.63;;;;;;;;;;5014404;28;20198;-52
2023/10/23 09:58:45;;;;;;;11.00;9.93;;;;;;;;;;5014350;28;20201;-52
2023/10/23 10:01:11;;;;;;;11.87;10.67;;;;;;;;;;5014129;28;20751;-52
2023/10/23 10:03:39;;;;;;;10.83;9.60;;;;;;;;;;5014217;28;20199;-51
2023/10/23 10:06:09;;;;;;;10.47;9.33;;;;;;;;;;5014006;28;20225;-52
2023/10/23 10:08:37;;;;;;;9.87;8.33;;;;;;;;;;5014184;28;20261;-52
2023/10/23 10:11:05;;;;;;;9.63;8.73;;;;;;;;;;5013996;28;20194;-51
2023/10/23 10:13:31;;;;;;;9.10;8.20;;;;;;;;;;5014051;28;20197;-52
2023/10/23 10:15:59;;;;;;;9.20;7.97;;;;;;;;;;5013870;28;20192;-51
2023/10/23 10:18:26;;;;;;;8.37;7.57;;;;;;;;;;5014030;28;20198;-52
2023/10/23 10:20:56;;;;;;;6.77;5.87;;;;;;;;;;5013707;28;20205;-51
2023/10/23 10:23:22;;;;;;;6.27;4.93;;;;;;;;;;5013960;28;20718;-51
2023/10/23 10:25:48;;;;;;;8.67;5.93;;;;;;;;;;5013766;28;20256;-51
2023/10/23 10:28:15;;;;;;;6.27;5.67;;;;;;;;;;5013833;28;20202;-52
2023/10/23 10:30:42;;;;;;;7.17;5.33;;;;;;;;;;5013636;28;20656;-52
2023/10/23 10:33:10;;;;;;;5.30;4.87;;;;;;;;;;5013431;28;20197;-52
2023/10/23 10:35:36;;;;;;;6.33;4.77;;;;;;;;;;5013632;28;20232;-51
2023/10/23 10:38:03;;;;;;;5.50;5.00;;;;;;;;;;5013612;28;20202;-52
2023/10/23 10:40:51;;;;;;;7.20;5.57;;;;;;;;;;5013594;28;20251;-52
2023/10/23 10:43:19;;;;;;;5.50;5.00;;;;;;;;;;5013259;28;20234;-52
2023/10/23 10:45:45;;;;;;;7.77;5.47;;;;;;;;;;5013437;28;20738;-52
2023/10/23 10:48:15;;;;;;;5.97;5.27;;;;;;;;;;5012126;28;20195;-52
2023/10/23 10:50:42;;;;;;;5.13;4.63;;;;;;;;;;5013386;28;20282;-51
2023/10/23 10:53:08;;;;;;;5.07;4.17;;;;;;;;;;5013268;28;20730;-51
2023/10/23 10:55:35;;;;;;;5.03;3.87;;;;;;;;;;5013360;28;20223;-51
2023/10/23 10:58:02;;;;;;;6.20;4.23;;;;;;;;;;5013426;28;20200;-53
2023/10/23 11:00:29;;;;;;;4.17;3.80;;;;;;;;;;5013234;28;20272;-51
2023/10/23 11:02:55;;;;;;;4.60;4.17;;;;;;;;;;5013002;28;20733;-52
2023/10/23 11:05:22;;;;;;;4.67;3.63;;;;;;;;;;5013105;28;20207;-53
2023/10/23 11:07:50;;;;;;;6.10;3.57;;;;;;;;;;5012997;28;20233;-52
2023/10/23 11:10:16;;;;;;;3.67;3.27;;;;;;;;;;5013016;28;20636;-52
2023/10/23 11:12:42;;;;;;;4.23;2.70;;;;;;;;;;5012937;28;20200;-52
2023/10/23 11:15:08;;;;;;;4.13;3.17;;;;;;;;;;5012721;28;20279;-52
2023/10/23 11:17:34;;;;;;;4.03;3.60;;;;;;;;;;5013010;28;20218;-52
2023/10/23 11:20:05;;;;;;;2.97;2.73;;;;;;;;;;5013072;28;20199;-52
2023/10/23 11:22:33;;;;;;;3.50;3.20;;;;;;;;;;5012884;28;20249;-52
2023/10/23 11:25:00;;;;;;;3.63;2.97;;;;;;;;;;5012855;28;20217;-52
2023/10/23 11:27:26;;;;;;;3.53;3.00;;;;;;;;;;5012776;28;20225;-53
2023/10/23 11:29:52;;;;;;;4.20;3.70;;;;;;;;;;5012505;28;20242;-52
2023/10/23 11:32:18;;;;;;;4.47;3.50;;;;;;;;;;5012700;28;20226;-53
2023/10/23 11:34:45;;;;;;;6.10;3.20;;;;;;;;;;5012637;28;20273;-53
2023/10/23 11:37:12;;;;;;;3.10;2.73;;;;;;;;;;5012670;28;20243;-53
2023/10/23 11:39:43;;;;;;;4.10;3.30;;;;;;;;;;5012520;28;20199;-53
2023/10/23 11:42:10;;;;;;;4.47;3.43;;;;;;;;;;5012309;28;20735;-53
2023/10/23 11:44:36;;;;;;;6.20;3.53;;;;;;;;;;5012452;28;20630;-53
2023/10/23 11:47:07;;;;;;;3.47;3.00;;;;;;;;;;5012279;28;20226;-53
2023/10/23 11:49:33;;;;;;;5.50;3.10;;;;;;;;;;5012278;28;20668;-53
2023/10/23 11:52:00;;;;;;;4.00;3.63;;;;;;;;;;5012394;28;20240;-52
2023/10/23 11:54:26;;;;;;;5.77;2.93;;;;;;;;;;5012210;28;20724;-56
2023/10/23 11:56:55;;;;;;;3.40;3.10;;;;;;;;;;5012192;28;20229;-52
2023/10/23 11:59:21;;;;;;;5.50;3.47;;;;;;;;;;5011446;28;20214;-52
2023/10/23 12:01:48;;;;;;;5.57;3.73;;;;;;;;;;5011867;28;20297;-53
2023/10/23 12:04:14;;;;;;;5.77;3.63;;;;;;;;;;5012107;28;20214;-52
2023/10/23 12:06:41;;;;;;;4.07;3.53;;;;;;;;;;5011821;28;20229;-53
2023/10/23 12:09:09;;;;;;;4.50;3.50;;;;;;;;;;5011774;28;20631;-53
2023/10/23 12:11:35;;;;;;;3.67;3.07;;;;;;;;;;5012027;28;20568;-53
2023/10/23 12:14:03;;;;;;;3.47;2.90;;;;;;;;;;5011918;28;20206;-53
2023/10/23 12:16:32;;;;;;;4.03;2.97;;;;;;;;;;5011853;28;20193;-53
2023/10/23 12:19:00;;;;;;;4.73;2.83;;;;;;;;;;5011932;28;20198;-53
2023/10/23 12:21:26;;;;;;;3.60;3.10;;;;;;;;;;5011507;28;20198;-53
2023/10/23 12:23:52;;;;;;;6.73;6.03;;;;;;;;;;5011528;28;20209;-53
2023/10/23 12:26:18;;;;;;;5.90;5.40;;;;;;;;;;5011726;28;20237;-53
2023/10/23 12:28:44;;;;;;;9.10;5.87;;;;;;;;;;5011855;28;20660;-53
2023/10/23 12:31:12;;;;;;;5.53;5.03;;;;;;;;;;5011558;28;20308;-53
2023/10/23 12:33:38;;;;;;;6.50;5.90;;;;;;;;;;5011722;28;20483;-53
2023/10/23 12:36:04;;;;;;;8.10;6.90;;;;;;;;;;5011578;28;20645;-52
2023/10/23 12:38:30;;;;;;;7.20;6.50;;;;;;;;;;5011630;28;20208;-52
2023/10/23 12:40:56;;;;;;;7.33;6.40;;;;;;;;;;5011565;28;20609;-53
2023/10/23 12:43:22;;;;;;;7.40;6.67;;;;;;;;;;5011286;28;20316;-53
2023/10/23 12:45:48;;;;;;;8.27;7.53;;;;;;;;;;5011667;28;20208;-53
2023/10/23 12:48:15;;;;;;;7.40;6.70;;;;;;;;;;5011224;28;20253;-54
2023/10/23 12:50:41;;;;;;;8.40;7.17;;;;;;;;;;5011413;28;20201;-53
2023/10/23 12:53:08;;;;;;;7.73;6.53;;;;;;;;;;5011266;28;20207;-52
2023/10/23 12:55:34;;;;;;;7.37;6.67;;;;;;;;;;5011574;28;20259;-53
2023/10/23 12:58:01;;;;;;;7.30;6.57;;;;;;;;;;5011518;28;20259;-53
2023/10/23 13:00:26;;;;;;;6.53;5.93;;;;;;;;;;5011205;28;20211;-53
2023/10/23 13:02:53;;;;;;;6.23;5.60;;;;;;;;;;5011089;28;20686;-53
2023/10/23 13:05:20;;;;;;;8.13;5.93;;;;;;;;;;5011229;28;20198;-53
2023/10/23 13:07:46;;;;;;;7.17;6.47;;;;;;;;;;5011402;28;20316;-53
2023/10/23 13:10:12;;;;;;;8.03;6.33;;;;;;;;;;5011179;28;20224;-53
2023/10/23 13:12:38;;;;;;;7.37;6.63;;;;;;;;;;5014548;28;20738;-51
2023/10/23 13:15:05;;;;;;;7.13;6.47;;;;;;;;;;5015066;28;20203;-53
2023/10/23 13:17:31;;;;;;;6.37;5.77;;;;;;;;;;5015110;28;20194;-51
2023/10/23 13:19:57;;;;;;;6.23;5.23;;;;;;;;;;5014881;28;20212;-51
2023/10/23 13:22:24;;;;;;;7.57;6.03;;;;;;;;;;5014952;28;20256;-52
2023/10/23 13:24:50;;;;;;;6.23;5.60;;;;;;;;;;5015006;28;20222;-52
2023/10/23 13:27:16;;;;;;;5.50;4.97;;;;;;;;;;5014701;28;20731;-52
2023/10/23 13:29:42;;;;;;;6.00;5.30;;;;;;;;;;5014898;28;20202;-52
2023/10/23 13:32:08;;;;;;;5.70;5.20;;;;;;;;;;5014532;28;20216;-52
2023/10/23 13:34:34;;;;;;;5.63;4.63;;;;;;;;;;5014465;28;20253;-52
2023/10/23 13:37:00;;;;;;;5.00;4.50;;;;;;;;;;5014811;28;20214;-52
2023/10/23 13:39:28;;;;;;;5.63;4.10;;;;;;;;;;5014631;28;20211;-52
2023/10/23 13:41:54;;;;;;;5.33;4.30;;;;;;;;;;5014408;28;20715;-52
2023/10/23 13:44:20;;;;;;;4.27;3.93;;;;;;;;;;5014606;28;20215;-52
2023/10/23 13:46:46;;;;;;;4.47;4.07;;;;;;;;;;5014759;28;20228;-52
2023/10/23 13:49:12;;;;;;;4.20;3.80;;;;;;;;;;5014353;28;20283;-52
2023/10/23 13:51:38;;;;;;;4.77;4.23;;;;;;;;;;5014529;28;20312;-53
2023/10/23 13:54:04;;;;;;;6.40;4.60;;;;;;;;;;5014504;28;20208;-52
2023/10/23 13:56:31;;;;;;;5.37;4.13;;;;;;;;;;5014443;28;20291;-52
2023/10/23 13:58:57;;;;;;;4.27;3.87;;;;;;;;;;5014465;28;20209;-52
2023/10/23 14:01:23;;;;;;;4.90;4.40;;;;;;;;;;5014336;28;20567;-52
2023/10/23 14:03:50;;;;;;;4.87;4.17;;;;;;;;;;5014307;28;20201;-53
2023/10/23 14:06:16;;;;;;;6.87;5.13;;;;;;;;;;5014023;28;20698;-52
2023/10/23 14:08:42;;;;;;;5.00;4.50;;;;;;;;;;5014203;28;20238;-52
2023/10/23 14:11:08;;;;;;;5.30;4.33;;;;;;;;;;5014008;28;20238;-53
2023/10/23 14:13:36;;;;;;;5.43;4.73;;;;;;;;;;5014066;28;20236;-52
2023/10/23 14:16:04;;;;;;;4.43;4.03;;;;;;;;;;5014162;28;20203;-53
2023/10/23 14:18:30;;;;;;;4.60;3.60;;;;;;;;;;5014014;28;20246;-53
2023/10/23 14:20:56;;;;;;;6.17;3.90;;;;;;;;;;5013982;28;20204;-53
2023/10/23 14:23:23;;;;;;;7.60;4.50;;;;;;;;;;5013470;28;20211;-52